createdAt,value
2024-02-26T00:05:20.260Z,21.60
2024-02-26T00:09:45.217Z,21.00
2024-02-26T00:13:51.343Z,18.10
2024-02-26T00:23:14.699Z,20.07
2024-02-26T00:27:26.882Z,19.17
2024-02-26T00:37:19.474Z,19.00
2024-02-26T01:07:02.591Z,19.50
2024-02-26T01:12:48.546Z,22.63
2024-02-26T01:43:56.996Z,20.23
2024-02-26T01:58:44.374Z,21.97
2024-02-26T02:13:46.029Z,19.33
2024-02-26T02:18:37.633Z,20.20
2024-02-26T02:27:36.959Z,20.20
2024-02-26T02:32:13.481Z,20.17
2024-02-26T02:36:36.340Z,20.03
2024-02-26T02:41:47.890Z,20.93
2024-02-26T02:46:22.944Z,19.20
2024-02-26T02:50:41.082Z,19.53
2024-02-26T02:54:57.523Z,18.57
2024-02-26T02:59:27.757Z,19.60
2024-02-26T03:03:57.768Z,20.63
2024-02-26T03:08:17.608Z,19.70
2024-02-26T03:22:41.374Z,19.80
2024-02-26T03:26:58.478Z,19.90
2024-02-26T03:31:45.542Z,19.40
2024-02-26T03:41:29.479Z,21.97
2024-02-26T03:45:51.654Z,20.40
2024-02-26T03:50:26.202Z,20.30
2024-02-26T03:54:46.339Z,21.60
2024-02-26T05:23:14.360Z,20.17
2024-02-26T05:27:31.028Z,23.43
2024-02-26T05:32:00.147Z,22.60
2024-02-26T05:36:05.864Z,20.03
2024-02-26T05:45:45.294Z,21.67
2024-02-26T05:54:25.357Z,19.93
2024-02-26T05:58:45.539Z,21.13
2024-02-26T06:03:26.340Z,21.87
2024-02-26T06:07:58.510Z,16.37
2024-02-26T06:12:19.980Z,18.63
2024-02-26T06:16:26.622Z,21.50
2024-02-26T06:36:55.159Z,16.93
2024-02-26T06:41:04.976Z,16.60
2024-02-26T06:45:18.385Z,15.13
2024-02-26T06:49:47.019Z,16.60
2024-02-26T06:53:53.162Z,13.20
2024-02-26T06:57:57.052Z,12.03
2024-02-26T07:02:02.153Z,17.27
2024-02-26T07:06:12.540Z,16.50
2024-02-26T07:10:16.518Z,14.03
2024-02-26T07:14:19.405Z,14.97
2024-02-26T07:18:30.376Z,18.67
2024-02-26T07:22:51.680Z,18.63
2024-02-26T07:26:57.307Z,18.63
2024-02-26T07:31:13.751Z,17.90
2024-02-26T07:35:21.579Z,13.90
2024-02-26T07:39:28.802Z,12.63
2024-02-26T07:43:35.190Z,13.60
2024-02-26T07:47:45.020Z,11.50
2024-02-26T07:51:59.946Z,11.67
2024-02-26T07:56:05.648Z,23.57
2024-02-26T08:00:40.903Z,16.10
2024-02-26T08:05:07.460Z,15.97
2024-02-26T08:09:15.538Z,17.90
2024-02-26T08:13:23.456Z,12.93
2024-02-26T08:22:56.694Z,9.87
2024-02-26T08:59:52.900Z,10.32
2024-02-26T09:03:59.882Z,10.77
2024-02-26T09:08:05.311Z,9.33
2024-02-26T09:12:12.532Z,9.70
2024-02-26T09:16:41.130Z,10.73
2024-02-26T09:25:34.874Z,11.67
2024-02-26T09:29:51.997Z,14.37
2024-02-26T09:34:03.442Z,12.70
2024-02-26T09:39:53.317Z,11.67
2024-02-26T09:44:22.260Z,11.07
2024-02-26T09:58:26.916Z,10.70
2024-02-26T10:03:04.899Z,10.00
2024-02-26T10:13:21.531Z,10.77
2024-02-26T10:24:28.764Z,8.30
2024-02-26T10:28:57.676Z,10.57
2024-02-26T10:33:06.552Z,12.63
2024-02-26T10:37:57.849Z,10.47
2024-02-26T10:47:05.845Z,11.70
2024-02-26T10:52:01.275Z,11.40
2024-02-26T10:56:18.426Z,10.43
2024-02-26T11:00:24.835Z,12.43
2024-02-26T11:04:35.421Z,9.67
2024-02-26T11:09:02.985Z,11.57
2024-02-26T11:13:18.562Z,14.20
2024-02-26T11:17:55.320Z,10.00
2024-02-26T11:22:15.800Z,11.50
2024-02-26T11:26:38.544Z,10.53
2024-02-26T11:31:00.781Z,9.43
2024-02-26T11:35:15.681Z,13.17
2024-02-26T11:39:22.755Z,10.10
2024-02-26T11:44:07.724Z,10.20
2024-02-26T11:48:39.832Z,10.17
2024-02-26T11:53:44.325Z,10.73
2024-02-26T11:57:49.634Z,10.77
2024-02-26T12:02:32.166Z,11.07
2024-02-26T12:07:14.493Z,10.30
2024-02-26T12:11:22.520Z,10.27
2024-02-26T12:15:36.344Z,10.43
2024-02-26T12:19:47.981Z,9.60
2024-02-26T12:23:57.811Z,9.67
2024-02-26T12:28:04.965Z,9.83
2024-02-26T12:32:20.041Z,9.13
2024-02-26T12:36:25.893Z,13.33
2024-02-26T12:40:44.329Z,10.90
2024-02-26T12:44:58.411Z,10.57
2024-02-26T12:49:28.558Z,9.57
2024-02-26T12:54:22.951Z,10.00
2024-02-26T12:58:33.141Z,10.10
2024-02-26T13:02:46.021Z,11.03
2024-02-26T13:11:33.606Z,10.13
2024-02-26T13:15:44.442Z,9.33
2024-02-26T13:20:19.742Z,10.97
2024-02-26T13:24:34.746Z,9.17
2024-02-26T13:28:56.162Z,8.07
2024-02-26T13:33:21.298Z,10.77
2024-02-26T13:37:28.979Z,8.77
2024-02-26T13:45:57.176Z,9.93
2024-02-26T13:56:08.512Z,9.70
2024-02-26T14:00:19.377Z,8.60
2024-02-26T14:04:28.097Z,10.07
2024-02-26T14:08:33.798Z,11.60
2024-02-26T14:12:52.205Z,9.47
2024-02-26T14:17:02.389Z,9.63
2024-02-26T14:21:09.386Z,11.30
2024-02-26T14:25:21.914Z,9.43
2024-02-26T14:29:32.914Z,10.60
2024-02-26T14:33:46.726Z,8.83
2024-02-26T14:37:54.680Z,9.73
2024-02-26T14:42:27.841Z,8.50
2024-02-26T14:46:47.466Z,9.43
2024-02-26T15:13:00.184Z,8.03
2024-02-26T15:17:52.319Z,8.47
2024-02-26T16:00:52.147Z,8.07
2024-02-26T16:05:06.091Z,7.80
2024-02-26T16:09:21.659Z,9.83
2024-02-26T16:13:53.660Z,8.93
2024-02-26T16:22:54.789Z,9.10
2024-02-26T16:39:12.869Z,11.83
2024-02-26T21:52:33.565Z,28.70
2024-02-26T21:56:52.168Z,23.37
2024-02-26T22:01:13.672Z,23.60
2024-02-26T22:05:33.998Z,21.67
2024-02-26T22:09:51.360Z,21.13
2024-02-26T22:14:30.324Z,22.83
2024-02-26T22:18:40.155Z,19.67
2024-02-26T22:23:08.887Z,21.53
2024-02-26T22:27:42.698Z,22.70
2024-02-26T22:32:04.920Z,21.87
2024-02-26T22:36:12.804Z,20.80
2024-02-26T22:40:28.039Z,22.97
2024-02-26T22:45:45.081Z,23.20
2024-02-26T22:51:42.072Z,22.73
2024-02-26T22:55:29.576Z,19.27
2024-02-26T23:05:06.906Z,22.20
2024-02-26T23:50:55.311Z,26.17
2024-02-26T23:55:47.301Z,21.37
